createdAt,value
2018-10-02T00:01:41.720Z,8.10
2018-10-02T00:04:09.885Z,8.10
2018-10-02T00:06:38.030Z,8.10
2018-10-02T00:09:08.177Z,8.10
2018-10-02T00:11:41.690Z,8.10
2018-10-02T00:14:15.397Z,8.20
2018-10-02T00:16:43.614Z,8.30
2018-10-02T00:19:11.798Z,8.30
2018-10-02T00:21:39.957Z,8.40
2018-10-02T00:24:08.254Z,8.40
2018-10-02T00:26:36.385Z,8.40
2018-10-02T00:29:04.546Z,8.40
2018-10-02T00:31:32.817Z,8.40
2018-10-02T00:34:00.865Z,8.40
2018-10-02T00:36:29.012Z,8.40
2018-10-02T00:38:57.153Z,8.40
2018-10-02T00:41:25.322Z,8.40
2018-10-02T00:43:53.458Z,8.50
2018-10-02T00:46:21.604Z,8.40
2018-10-02T00:48:49.753Z,8.40
2018-10-02T00:51:17.885Z,8.40
2018-10-02T00:53:46.062Z,8.40
2018-10-02T00:56:14.235Z,8.30
2018-10-02T00:58:42.393Z,8.30
2018-10-02T01:01:10.529Z,8.30
2018-10-02T01:03:38.690Z,8.20
2018-10-02T01:06:06.881Z,8.10
2018-10-02T01:08:35.020Z,8.10
2018-10-02T01:11:03.157Z,8.00
2018-10-02T01:13:31.293Z,8.00
2018-10-02T01:15:59.436Z,8.00
2018-10-02T01:18:27.592Z,7.90
2018-10-02T01:20:55.745Z,7.90
2018-10-02T01:23:23.888Z,7.90
2018-10-02T01:25:52.040Z,7.90
2018-10-02T01:28:20.209Z,7.80
2018-10-02T01:30:48.341Z,7.80
2018-10-02T01:33:16.477Z,7.70
2018-10-02T01:35:44.612Z,7.80
2018-10-02T01:38:12.775Z,7.70
2018-10-02T01:40:40.929Z,7.70
2018-10-02T01:43:09.065Z,7.60
2018-10-02T01:45:37.221Z,7.40
2018-10-02T01:48:05.364Z,7.50
2018-10-02T01:50:33.521Z,7.40
2018-10-02T01:53:01.673Z,7.30
2018-10-02T01:55:29.809Z,7.30
2018-10-02T01:57:57.973Z,7.30
2018-10-02T02:00:26.121Z,7.20
2018-10-02T02:02:54.328Z,7.30
2018-10-02T02:05:22.525Z,7.30
2018-10-02T02:07:50.677Z,7.40
2018-10-02T02:10:18.810Z,7.50
2018-10-02T02:12:46.971Z,7.60
2018-10-02T02:15:15.109Z,7.60
2018-10-02T02:17:43.266Z,7.50
2018-10-02T02:20:11.404Z,7.50
2018-10-02T02:22:39.541Z,7.60
2018-10-02T02:25:07.658Z,7.50
2018-10-02T02:27:35.805Z,7.50
2018-10-02T02:30:03.958Z,7.50
2018-10-02T02:32:32.114Z,7.40
2018-10-02T02:35:00.273Z,7.30
2018-10-02T02:37:28.421Z,7.30
2018-10-02T02:39:56.568Z,7.20
2018-10-02T02:42:24.705Z,7.30
2018-10-02T02:44:52.865Z,7.20
2018-10-02T02:48:24.898Z,7.20
2018-10-02T02:50:58.513Z,7.20
2018-10-02T02:53:26.657Z,7.20
2018-10-02T02:55:54.787Z,7.00
2018-10-02T02:58:22.936Z,7.00
2018-10-02T03:00:51.097Z,6.80
2018-10-02T03:03:19.246Z,6.70
2018-10-02T03:05:47.419Z,6.60
2018-10-02T03:08:15.564Z,6.50
2018-10-02T03:10:43.713Z,6.50
2018-10-02T03:13:11.889Z,6.50
2018-10-02T03:15:40.994Z,6.40
2018-10-02T03:18:09.287Z,6.40
2018-10-02T03:20:37.417Z,6.30
2018-10-02T03:23:05.574Z,6.30
2018-10-02T03:25:33.810Z,6.20
2018-10-02T03:28:01.973Z,6.10
2018-10-02T03:30:30.125Z,6.00
2018-10-02T03:32:58.288Z,5.90
2018-10-02T03:35:26.472Z,5.90
2018-10-02T03:37:54.685Z,5.80
2018-10-02T03:40:22.801Z,5.80
2018-10-02T03:42:50.977Z,5.70
2018-10-02T03:45:19.154Z,5.70
2018-10-02T03:47:47.283Z,5.70
2018-10-02T03:50:15.429Z,5.60
2018-10-02T03:52:43.586Z,5.50
2018-10-02T03:55:11.775Z,5.50
2018-10-02T03:57:39.922Z,5.50
2018-10-02T04:00:08.057Z,5.50
2018-10-02T04:02:36.480Z,5.50
2018-10-02T04:05:04.657Z,5.40
2018-10-02T04:07:32.779Z,5.20
2018-10-02T04:10:00.944Z,5.10
2018-10-02T04:12:29.120Z,5.00
2018-10-02T04:14:57.299Z,5.00
2018-10-02T04:17:25.441Z,5.00
2018-10-02T04:19:53.572Z,4.90
2018-10-02T04:22:21.729Z,4.80
2018-10-02T04:24:49.885Z,4.70
2018-10-02T04:27:18.058Z,4.50
2018-10-02T04:29:46.200Z,4.40
2018-10-02T04:32:14.349Z,4.40
2018-10-02T04:34:42.511Z,4.50
2018-10-02T04:37:10.677Z,4.40
2018-10-02T04:39:38.896Z,4.40
2018-10-02T04:42:07.145Z,4.30
2018-10-02T04:44:35.300Z,4.30
2018-10-02T04:47:03.468Z,4.20
2018-10-02T04:49:31.619Z,4.20
2018-10-02T04:51:59.766Z,4.10
2018-10-02T04:54:27.925Z,4.10
2018-10-02T04:56:56.110Z,4.00
2018-10-02T04:59:24.268Z,4.00
2018-10-02T05:01:52.457Z,4.00
2018-10-02T05:04:20.610Z,4.00
2018-10-02T05:06:48.800Z,4.00
2018-10-02T05:09:16.929Z,4.00
2018-10-02T05:11:45.088Z,5.60
2018-10-02T05:14:14.059Z,5.60
2018-10-02T05:16:42.561Z,5.00
2018-10-02T05:19:16.335Z,5.10
2018-10-02T05:21:44.601Z,5.00
2018-10-02T05:24:13.203Z,5.10
2018-10-02T05:26:41.353Z,5.50
2018-10-02T05:29:09.496Z,4.80
2018-10-02T05:31:37.761Z,4.70
2018-10-02T05:34:06.161Z,4.60
2018-10-02T05:36:34.361Z,4.70
2018-10-02T05:39:02.528Z,4.70
2018-10-02T05:41:30.694Z,4.80
2018-10-02T05:43:58.844Z,4.90
2018-10-02T05:46:26.989Z,4.90
2018-10-02T05:48:55.153Z,5.10
2018-10-02T05:51:23.317Z,5.10
2018-10-02T05:53:51.485Z,5.10
2018-10-02T05:56:19.617Z,5.90
2018-10-02T05:58:47.769Z,5.50
2018-10-02T06:01:15.925Z,5.60
2018-10-02T06:03:44.131Z,5.50
2018-10-02T06:06:12.257Z,5.40
2018-10-02T06:08:40.424Z,5.50
2018-10-02T06:11:08.598Z,5.60
2018-10-02T06:13:36.759Z,5.50
2018-10-02T06:16:04.880Z,5.50
2018-10-02T06:18:33.059Z,5.40
2018-10-02T06:21:01.177Z,5.40
2018-10-02T06:23:29.748Z,5.50
2018-10-02T06:25:57.889Z,5.60
2018-10-02T06:28:26.037Z,5.90
2018-10-02T06:30:54.170Z,6.30
2018-10-02T06:33:22.354Z,6.80
2018-10-02T06:35:50.461Z,7.20
2018-10-02T06:38:18.660Z,7.30
2018-10-02T06:40:46.788Z,7.30
2018-10-02T06:43:15.362Z,7.00
2018-10-02T06:45:43.498Z,7.00
2018-10-02T06:48:11.645Z,7.00
2018-10-02T06:50:39.821Z,7.00
2018-10-02T06:53:07.922Z,7.00
2018-10-02T06:55:36.057Z,6.90
2018-10-02T06:58:04.217Z,6.70
2018-10-02T07:00:32.348Z,6.90
2018-10-02T07:03:00.617Z,7.10
2018-10-02T07:05:28.748Z,7.40
2018-10-02T07:07:56.885Z,7.70
2018-10-02T07:10:25.017Z,7.70
2018-10-02T07:12:53.182Z,7.80
2018-10-02T07:15:21.325Z,7.80
2018-10-02T07:17:49.477Z,7.90
2018-10-02T07:20:17.624Z,8.60
2018-10-02T07:22:45.773Z,9.10
2018-10-02T07:25:13.949Z,9.30
2018-10-02T07:27:42.218Z,9.00
2018-10-02T07:30:10.245Z,9.10
2018-10-02T07:32:38.406Z,9.40
2018-10-02T07:35:06.553Z,9.60
2018-10-02T07:37:34.686Z,9.70
2018-10-02T07:40:02.906Z,9.20
2018-10-02T07:42:31.082Z,9.30
2018-10-02T07:44:59.230Z,9.60
2018-10-02T07:47:27.330Z,9.40
2018-10-02T07:49:55.481Z,9.30
2018-10-02T07:52:23.618Z,10.20
2018-10-02T07:54:51.773Z,10.90
2018-10-02T07:57:19.898Z,10.40
2018-10-02T07:59:48.068Z,11.10
2018-10-02T08:02:16.197Z,10.90
2018-10-02T08:04:44.381Z,11.00
2018-10-02T08:07:12.494Z,10.20
2018-10-02T08:09:40.657Z,10.60
2018-10-02T08:12:08.878Z,10.30
2018-10-02T08:14:36.995Z,10.50
2018-10-02T08:17:05.083Z,10.90
2018-10-02T08:19:33.242Z,10.20
2018-10-02T08:22:01.381Z,10.60
2018-10-02T08:24:29.532Z,10.90
2018-10-02T08:26:57.756Z,11.80
2018-10-02T08:29:26.023Z,11.90
2018-10-02T08:31:54.021Z,11.90
2018-10-02T08:34:22.165Z,12.00
2018-10-02T08:36:50.313Z,12.90
2018-10-02T08:39:18.473Z,14.30
2018-10-02T08:41:46.627Z,13.20
2018-10-02T08:44:14.745Z,11.10
2018-10-02T08:46:42.893Z,11.00
2018-10-02T08:49:11.100Z,11.60
2018-10-02T08:51:39.274Z,11.60
2018-10-02T08:54:07.537Z,12.60
2018-10-02T08:56:35.579Z,12.50
2018-10-02T08:59:03.734Z,12.10
2018-10-02T09:01:31.889Z,11.30
2018-10-02T09:04:00.039Z,11.50
2018-10-02T09:06:28.201Z,11.70
2018-10-02T09:08:56.313Z,11.00
2018-10-02T09:11:24.503Z,11.20
2018-10-02T09:13:52.669Z,10.40
2018-10-02T09:16:20.827Z,10.40
2018-10-02T09:18:48.946Z,10.70
2018-10-02T09:21:17.076Z,10.20
2018-10-02T09:23:45.223Z,10.30
2018-10-02T09:26:13.623Z,10.20
2018-10-02T09:28:41.850Z,10.20
2018-10-02T09:31:15.393Z,10.60
2018-10-02T09:33:49.007Z,10.90
2018-10-02T09:36:22.493Z,11.00
2018-10-02T09:38:55.932Z,11.50
2018-10-02T09:41:29.629Z,11.20
2018-10-02T09:43:59.235Z,11.60
2018-10-02T09:46:27.496Z,12.30
2018-10-02T09:48:55.955Z,11.20
2018-10-02T09:51:24.169Z,11.20
2018-10-02T09:53:52.312Z,11.10
2018-10-02T09:56:20.453Z,11.30
2018-10-02T09:58:48.610Z,11.70
2018-10-02T10:01:22.300Z,11.60
2018-10-02T10:03:50.462Z,11.50
2018-10-02T10:06:18.596Z,11.30
2018-10-02T10:08:46.742Z,11.80
2018-10-02T10:11:14.897Z,11.70
2018-10-02T10:13:43.054Z,11.40
2018-10-02T10:16:11.201Z,11.40
2018-10-02T10:18:39.341Z,11.50
2018-10-02T10:21:07.500Z,11.70
2018-10-02T10:23:35.679Z,11.30
2018-10-02T10:26:03.817Z,11.40
2018-10-02T10:28:32.019Z,11.60
2018-10-02T10:31:00.093Z,12.20
2018-10-02T10:33:28.248Z,12.00
2018-10-02T10:35:56.405Z,12.60
2018-10-02T10:38:24.545Z,12.70
2018-10-02T10:40:52.748Z,13.20
2018-10-02T10:43:21.038Z,13.00
2018-10-02T10:45:49.265Z,12.90
2018-10-02T10:48:17.422Z,13.20
2018-10-02T10:50:45.584Z,13.00
2018-10-02T10:53:13.725Z,12.70
2018-10-02T10:55:41.856Z,13.00
2018-10-02T10:58:09.997Z,13.00
2018-10-02T11:00:38.146Z,12.80
2018-10-02T11:03:06.343Z,12.90
2018-10-02T11:05:34.446Z,12.00
2018-10-02T11:08:02.591Z,12.20
2018-10-02T11:10:30.752Z,12.80
2018-10-02T11:12:58.901Z,12.80
2018-10-02T11:15:29.081Z,12.80
2018-10-02T11:17:57.232Z,12.80
2018-10-02T11:20:35.141Z,12.60
2018-10-02T11:23:03.336Z,12.30
2018-10-02T11:25:31.509Z,12.60
2018-10-02T11:27:59.637Z,11.90
2018-10-02T11:30:27.784Z,12.00
2018-10-02T11:32:55.920Z,12.20
2018-10-02T11:35:24.090Z,11.70
2018-10-02T11:37:52.406Z,11.90
2018-10-02T11:40:20.542Z,11.80
2018-10-02T11:42:48.701Z,11.70
2018-10-02T11:45:16.858Z,11.90
2018-10-02T11:47:45.006Z,12.00
2018-10-02T11:50:13.216Z,12.00
2018-10-02T11:52:41.395Z,12.10
2018-10-02T11:55:09.643Z,12.10
2018-10-02T11:57:37.778Z,11.80
2018-10-02T12:00:06.305Z,12.00
2018-10-02T12:02:34.480Z,11.90
2018-10-02T12:05:02.624Z,12.00
2018-10-02T12:07:30.758Z,12.20
2018-10-02T12:09:58.917Z,12.60
2018-10-02T12:12:27.072Z,12.60
2018-10-02T12:14:55.283Z,12.80
2018-10-02T12:17:23.412Z,12.40
2018-10-02T12:19:51.832Z,12.50
2018-10-02T12:22:19.780Z,12.20
2018-10-02T12:24:48.498Z,12.20
2018-10-02T12:27:16.641Z,12.60
2018-10-02T12:29:44.800Z,12.90
2018-10-02T12:32:12.938Z,12.60
2018-10-02T12:34:41.085Z,12.70
2018-10-02T12:37:09.230Z,12.50
2018-10-02T12:39:37.444Z,12.80
2018-10-02T12:42:05.630Z,13.00
2018-10-02T12:44:33.770Z,12.90
2018-10-02T12:47:01.927Z,13.00
2018-10-02T12:49:30.057Z,13.10
2018-10-02T12:51:58.196Z,13.20
2018-10-02T12:54:26.400Z,13.10
2018-10-02T12:56:54.524Z,12.90
2018-10-02T12:59:22.725Z,13.00
2018-10-02T13:01:50.828Z,12.80
2018-10-02T13:04:19.001Z,12.70
2018-10-02T13:06:47.182Z,12.70
2018-10-02T13:09:15.370Z,12.70
2018-10-02T13:11:43.481Z,12.70
2018-10-02T13:14:11.622Z,12.80
2018-10-02T13:16:39.792Z,12.70
2018-10-02T13:19:07.932Z,12.70
2018-10-02T13:21:36.098Z,12.50
2018-10-02T13:24:04.311Z,12.70
2018-10-02T13:26:32.470Z,12.60
2018-10-02T13:29:00.633Z,12.60
2018-10-02T13:31:28.835Z,12.50
2018-10-02T13:33:56.997Z,12.50
2018-10-02T13:36:25.166Z,12.80
2018-10-02T13:38:53.357Z,12.60
2018-10-02T13:41:21.512Z,12.60
2018-10-02T13:43:49.668Z,12.70
2018-10-02T13:46:17.832Z,12.40
2018-10-02T13:48:46.000Z,12.40
2018-10-02T13:51:14.166Z,12.60
2018-10-02T13:53:42.309Z,12.50
2018-10-02T13:56:10.481Z,12.50
2018-10-02T13:58:38.645Z,12.60
2018-10-02T14:01:06.882Z,12.60
2018-10-02T14:03:35.054Z,12.50
2018-10-02T14:06:03.209Z,12.50
2018-10-02T14:08:31.461Z,12.40
2018-10-02T14:10:59.613Z,12.50
2018-10-02T14:13:27.830Z,12.60
2018-10-02T14:15:56.009Z,12.50
2018-10-02T14:18:24.208Z,12.60
2018-10-02T14:20:52.357Z,12.60
2018-10-02T14:23:20.530Z,12.70
2018-10-02T14:25:48.713Z,12.40
2018-10-02T14:28:16.889Z,12.40
2018-10-02T14:30:47.874Z,12.30
2018-10-02T14:33:16.010Z,12.10
2018-10-02T14:35:44.148Z,12.00
2018-10-02T14:38:12.290Z,12.10
2018-10-02T14:40:40.452Z,12.10
2018-10-02T14:43:08.697Z,11.80
2018-10-02T14:45:36.808Z,11.80
2018-10-02T14:48:04.981Z,11.70
2018-10-02T14:50:33.136Z,11.70
2018-10-02T14:53:01.281Z,11.60
2018-10-02T14:55:29.445Z,11.50
2018-10-02T14:57:57.609Z,11.40
2018-10-02T15:00:25.809Z,11.20
2018-10-02T15:02:53.974Z,11.10
2018-10-02T15:05:22.175Z,11.10
2018-10-02T15:07:50.358Z,11.10
2018-10-02T15:10:18.532Z,11.10
2018-10-02T15:12:46.749Z,11.00
2018-10-02T15:15:14.895Z,11.00
2018-10-02T15:17:43.029Z,10.90
2018-10-02T15:20:12.041Z,11.10
2018-10-02T15:22:40.189Z,11.00
2018-10-02T15:25:08.394Z,11.00
2018-10-02T15:27:36.580Z,11.00
2018-10-02T15:30:04.938Z,11.00
2018-10-02T15:32:33.073Z,11.20
2018-10-02T15:35:01.276Z,11.10
2018-10-02T15:37:29.512Z,11.10
2018-10-02T15:39:57.609Z,11.20
2018-10-02T15:42:25.845Z,11.20
2018-10-02T15:44:54.182Z,11.20
2018-10-02T15:47:22.344Z,11.30
2018-10-02T15:49:50.489Z,11.30
2018-10-02T15:52:18.702Z,11.30
2018-10-02T15:54:47.086Z,11.40
2018-10-02T15:57:15.384Z,11.30
2018-10-02T15:59:43.937Z,11.30
2018-10-02T16:02:12.158Z,11.30
2018-10-02T16:04:40.440Z,11.30
2018-10-02T16:07:08.873Z,11.30
2018-10-02T16:09:37.045Z,11.30
2018-10-02T16:12:05.214Z,11.30
2018-10-02T16:14:33.445Z,11.30
2018-10-02T16:17:01.621Z,11.40
2018-10-02T16:19:29.802Z,11.40
2018-10-02T16:21:58.032Z,11.40
2018-10-02T16:24:26.189Z,11.40
2018-10-02T16:26:54.330Z,11.40
2018-10-02T16:29:22.532Z,11.40
2018-10-02T16:31:50.657Z,11.40
2018-10-02T16:34:18.953Z,11.50
2018-10-02T16:36:47.113Z,11.60
2018-10-02T16:39:15.289Z,11.60
2018-10-02T16:41:43.461Z,11.60
2018-10-02T16:44:11.605Z,11.60
2018-10-02T16:46:39.757Z,11.60
2018-10-02T16:49:07.917Z,11.60
2018-10-02T16:51:36.077Z,11.60
2018-10-02T16:54:04.252Z,11.60
2018-10-02T16:56:32.485Z,11.60
2018-10-02T16:59:00.629Z,11.60
2018-10-02T17:01:28.781Z,11.70
2018-10-02T17:03:56.987Z,11.70
2018-10-02T17:06:25.097Z,11.70
2018-10-02T17:08:53.270Z,11.70
2018-10-02T17:11:21.421Z,11.70
2018-10-02T17:13:49.601Z,11.70
2018-10-02T17:16:17.820Z,11.60
2018-10-02T17:18:45.965Z,11.60
2018-10-02T17:21:14.125Z,11.60
2018-10-02T17:23:42.329Z,11.60
2018-10-02T17:26:10.486Z,11.60
2018-10-02T17:28:38.649Z,11.70
2018-10-02T17:31:06.805Z,11.70
2018-10-02T17:33:34.985Z,11.70
2018-10-02T17:36:03.154Z,11.60
2018-10-02T17:38:31.294Z,11.60
2018-10-02T17:40:59.510Z,11.60
2018-10-02T17:43:27.673Z,11.70
2018-10-02T17:45:55.849Z,11.60
2018-10-02T17:48:24.453Z,11.60
2018-10-02T17:50:52.629Z,11.60
2018-10-02T17:53:20.797Z,11.60
2018-10-02T17:55:48.986Z,11.60
2018-10-02T17:58:17.149Z,11.60
2018-10-02T18:00:45.309Z,11.60
2018-10-02T18:03:13.445Z,11.60
2018-10-02T18:05:41.601Z,11.60
2018-10-02T18:08:09.749Z,11.60
2018-10-02T18:10:37.937Z,11.60
2018-10-02T18:13:06.230Z,11.60
2018-10-02T18:15:34.791Z,11.60
2018-10-02T18:18:03.275Z,11.60
2018-10-02T18:20:31.454Z,11.60
2018-10-02T18:22:59.612Z,11.60
2018-10-02T18:25:27.785Z,11.70
2018-10-02T18:27:55.937Z,11.60
2018-10-02T18:30:24.118Z,11.60
2018-10-02T18:32:52.306Z,11.60
2018-10-02T18:35:20.487Z,11.60
2018-10-02T18:37:48.633Z,11.60
2018-10-02T18:40:16.811Z,11.60
2018-10-02T18:42:44.977Z,11.60
2018-10-02T18:45:13.137Z,11.60
2018-10-02T18:47:41.409Z,11.60
2018-10-02T18:50:09.613Z,11.60
2018-10-02T18:52:37.787Z,11.60
2018-10-02T18:55:05.959Z,11.60
2018-10-02T18:57:34.145Z,11.50
2018-10-02T19:00:02.310Z,11.60
2018-10-02T19:02:30.457Z,11.50
2018-10-02T19:04:58.597Z,11.60
2018-10-02T19:07:26.764Z,11.60
2018-10-02T19:09:54.968Z,11.50
2018-10-02T19:12:23.120Z,11.50
2018-10-02T19:14:51.272Z,11.50
2018-10-02T19:17:19.444Z,11.50
2018-10-02T19:19:53.087Z,11.50
2018-10-02T19:22:21.358Z,11.50
2018-10-02T19:24:49.791Z,11.50
2018-10-02T19:27:17.950Z,11.40
2018-10-02T19:29:46.131Z,11.40
2018-10-02T19:32:17.904Z,11.40
2018-10-02T19:34:46.892Z,11.40
2018-10-02T19:37:20.457Z,11.40
2018-10-02T19:39:48.621Z,11.40
2018-10-02T19:42:16.866Z,11.40
2018-10-02T19:44:45.062Z,11.30
2018-10-02T19:47:13.274Z,11.40
2018-10-02T19:49:41.375Z,11.30
2018-10-02T19:52:12.818Z,11.30
2018-10-02T19:54:41.125Z,11.30
2018-10-02T19:57:10.777Z,11.30
2018-10-02T19:59:38.905Z,11.30
2018-10-02T20:02:07.179Z,11.30
2018-10-02T20:04:35.623Z,11.30
2018-10-02T20:07:03.773Z,11.30
2018-10-02T20:09:31.937Z,11.30
2018-10-02T20:12:00.358Z,11.30
2018-10-02T20:14:28.503Z,11.30
2018-10-02T20:16:56.676Z,11.30
2018-10-02T20:19:24.845Z,11.30
2018-10-02T20:21:53.063Z,11.20
2018-10-02T20:24:21.237Z,11.30
2018-10-02T20:26:49.422Z,11.30
2018-10-02T20:29:17.597Z,11.20
2018-10-02T20:31:47.673Z,11.20
2018-10-02T20:34:15.861Z,11.30
2018-10-02T20:36:44.115Z,11.20
2018-10-02T20:39:12.721Z,11.20
2018-10-02T20:41:40.890Z,11.20
2018-10-02T20:44:09.474Z,11.20
2018-10-02T20:46:37.781Z,11.20
2018-10-02T20:49:06.045Z,11.20
2018-10-02T20:51:34.173Z,11.20
2018-10-02T20:54:02.345Z,11.30
2018-10-02T20:56:30.882Z,11.20
2018-10-02T20:58:59.544Z,11.20
2018-10-02T21:01:28.061Z,11.20
2018-10-02T21:03:56.217Z,11.20
2018-10-02T21:06:24.461Z,11.20
2018-10-02T21:08:52.638Z,11.20
2018-10-02T21:11:21.014Z,11.20
2018-10-02T21:13:49.233Z,11.20
2018-10-02T21:16:17.513Z,11.20
2018-10-02T21:18:45.665Z,11.20
2018-10-02T21:21:13.866Z,11.20
2018-10-02T21:23:42.025Z,11.20
2018-10-02T21:26:10.185Z,11.20
2018-10-02T21:28:38.329Z,11.20
2018-10-02T21:31:06.920Z,11.20
2018-10-02T21:33:35.072Z,11.20
2018-10-02T21:36:03.536Z,11.20
2018-10-02T21:38:31.897Z,11.20
2018-10-02T21:41:00.155Z,11.20
2018-10-02T21:43:28.285Z,11.20
2018-10-02T21:45:56.625Z,11.20
2018-10-02T21:48:25.146Z,11.20
2018-10-02T21:50:53.497Z,11.20
2018-10-02T21:53:21.648Z,11.20
2018-10-02T21:55:49.873Z,11.20
2018-10-02T21:58:18.022Z,11.20
2018-10-02T22:00:46.202Z,11.20
2018-10-02T22:03:14.354Z,11.20
2018-10-02T22:05:42.519Z,11.20
2018-10-02T22:08:10.658Z,11.20
2018-10-02T22:10:38.805Z,11.20
2018-10-02T22:13:07.455Z,11.20
2018-10-02T22:15:35.613Z,11.20
2018-10-02T22:18:03.750Z,11.20
2018-10-02T22:20:31.905Z,11.20
2018-10-02T22:23:00.062Z,11.20
2018-10-02T22:25:28.236Z,11.20
2018-10-02T22:27:56.398Z,11.20
2018-10-02T22:30:24.552Z,11.20
2018-10-02T22:32:52.705Z,11.20
2018-10-02T22:35:20.876Z,11.20
2018-10-02T22:37:49.017Z,11.20
2018-10-02T22:40:17.158Z,11.10
2018-10-02T22:42:45.320Z,11.10
2018-10-02T22:45:13.467Z,11.10
2018-10-02T22:47:41.609Z,11.00
2018-10-02T22:50:09.765Z,11.00
2018-10-02T22:52:37.926Z,11.00
2018-10-02T22:55:06.199Z,10.90
2018-10-02T22:57:34.350Z,10.90
2018-10-02T23:00:02.522Z,10.80
2018-10-02T23:02:30.681Z,10.80
2018-10-02T23:04:58.849Z,10.80
2018-10-02T23:07:26.989Z,10.80
2018-10-02T23:09:55.145Z,10.90
2018-10-02T23:12:23.289Z,10.90
2018-10-02T23:14:51.425Z,10.90
2018-10-02T23:17:19.586Z,10.90
2018-10-02T23:19:47.725Z,10.90
2018-10-02T23:22:15.882Z,10.90
2018-10-02T23:24:44.034Z,10.90
2018-10-02T23:27:12.177Z,11.00
2018-10-02T23:29:40.329Z,11.00
2018-10-02T23:32:08.510Z,11.10
2018-10-02T23:34:36.657Z,11.10
2018-10-02T23:37:04.806Z,11.10
2018-10-02T23:39:32.972Z,11.20
2018-10-02T23:42:01.181Z,11.20
2018-10-02T23:44:29.325Z,11.20
2018-10-02T23:46:58.000Z,11.30
2018-10-02T23:49:26.170Z,11.30
2018-10-02T23:51:54.314Z,11.30
2018-10-02T23:54:22.456Z,11.30
2018-10-02T23:56:50.609Z,11.30
2018-10-02T23:59:18.834Z,11.30
